.
WxDataArchive / Data Records for 2008-10-04
2008-10-03 October 2008 2008-10-05

Data Records for Saturday, 04 October 2008

Time	Temp	Chill	HIndex	Humid	Dewpt	 Wind 	HiWind	WindDir	Rain 	Barom 
-----	----	-----	------	-----	-----	------	------	-------	-----	----- 
00:00	40.2	40.2	40.2	88	36.9	0	0	---	0.00	30.111 
00:05	40.1	40.1	40.1	88	36.8	0	0	---	0.00	30.108 
00:10	40.1	40.1	40.1	88	36.8	0	0	---	0.00	30.108 
00:15	39.9	39.9	39.9	88	36.6	0	0	---	0.00	30.107 
00:20	39.9	39.9	39.9	88	36.6	0	0	---	0.00	30.107 
00:25	39.8	39.8	39.8	89	36.8	0	0	---	0.00	30.105 
00:30	39.8	39.8	39.8	89	36.8	0	0	---	0.00	30.105 
00:35	39.6	39.6	39.6	89	36.6	0	0	---	0.00	30.105 
00:40	39.5	39.5	39.5	89	36.5	0	0	---	0.00	30.105 
00:45	39.3	39.3	39.3	89	36.3	0	0	---	0.00	30.109 
00:50	39.2	39.2	39.2	89	36.2	0	0	---	0.00	30.110 
00:55	39.1	39.1	39.1	89	36.1	0	0	---	0.00	30.110 
01:00	39.1	39.1	39.1	90	36.4	0	0	---	0.00	30.112 
01:05	39.1	39.1	39.1	90	36.4	0	0	---	0.00	30.114 
01:10	39.1	39.1	39.1	90	36.4	0	0	---	0.00	30.118 
01:15	38.9	38.9	38.9	90	36.2	0	0	---	0.00	30.118 
01:20	38.9	38.9	38.9	90	36.2	0	0	---	0.00	30.120 
01:25	38.9	38.9	38.9	90	36.2	0	0	---	0.00	30.122 
01:30	38.8	38.8	38.8	90	36.1	0	0	---	0.00	30.122 
01:35	38.8	38.8	38.8	91	36.4	0	0	---	0.00	30.123 
01:40	38.6	38.6	38.6	91	36.2	0	0	---	0.00	30.123 
01:45	38.6	38.6	38.6	91	36.2	0	0	---	0.00	30.123 
01:50	38.6	38.6	38.6	91	36.2	0	0	---	0.00	30.123 
01:55	38.6	38.6	38.6	91	36.2	0	0	---	0.00	30.123 
02:00	38.5	38.5	38.5	91	36.1	0	0	---	0.00	30.124 
02:05	38.5	38.5	38.5	91	36.1	0	0	---	0.00	30.123 
02:10	38.5	38.5	38.5	91	36.1	0	0	---	0.00	30.124 
02:15	38.3	38.3	38.3	91	35.9	0	0	---	0.00	30.124 
02:20	38.3	38.3	38.3	91	35.9	0	0	---	0.00	30.125 
02:25	38.3	38.3	38.3	91	35.9	0	0	---	0.00	30.126 
02:30	38.2	38.2	38.2	91	35.8	0	0	---	0.00	30.128 
02:35	38.2	38.2	38.2	91	35.8	0	0	---	0.00	30.127 
02:40	38.0	38.0	38.0	91	35.6	0	0	---	0.00	30.126 
02:45	38.0	38.0	38.0	91	35.6	0	0	---	0.00	30.126 
02:50	38.0	38.0	38.0	91	35.6	0	0	---	0.00	30.126 
02:55	37.9	37.9	37.9	91	35.5	0	0	---	0.00	30.125 
03:00	37.9	37.9	37.9	91	35.5	0	0	---	0.00	30.127 
03:05	37.8	37.8	37.8	91	35.4	0	0	---	0.00	30.125 
03:10	37.8	37.8	37.8	91	35.4	0	0	---	0.00	30.124 
03:15	37.8	37.8	37.8	91	35.4	0	0	---	0.00	30.124 
03:20	37.8	37.8	37.8	91	35.4	0	0	---	0.00	30.124 
03:25	37.6	37.6	37.6	91	35.2	0	0	---	0.00	30.125 
03:30	37.6	37.6	37.6	91	35.2	0	0	---	0.00	30.126 
03:35	37.5	37.5	37.5	91	35.1	0	0	---	0.00	30.129 
03:40	37.3	37.3	37.3	91	34.9	0	0	---	0.00	30.132 
03:45	37.2	37.2	37.2	91	34.8	0	0	---	0.00	30.136 
03:50	37.0	37.0	37.0	91	34.6	0	0	---	0.00	30.137 
03:55	36.9	36.9	36.9	91	34.5	0	0	---	0.00	30.138 
04:00	36.8	36.8	36.8	91	34.4	0	0	---	0.00	30.136 
04:05	36.5	36.5	36.5	91	34.1	0	0	---	0.00	30.135 
04:10	36.3	36.3	36.3	91	33.9	0	0	---	0.00	30.136 
04:15	36.2	36.2	36.2	91	33.8	0	0	---	0.00	30.138 
04:20	36.0	36.0	36.0	91	33.6	0	0	---	0.00	30.140 
04:25	35.9	35.9	35.9	91	33.5	0	0	---	0.00	30.140 
04:30	35.6	35.6	35.6	91	33.2	0	0	---	0.00	30.141 
04:35	35.5	35.5	35.5	91	33.1	0	0	---	0.00	30.141 
04:40	35.3	35.3	35.3	92	33.2	0	0	---	0.00	30.142 
04:45	35.3	35.3	35.3	92	33.2	0	0	---	0.00	30.145 
04:50	35.0	35.0	35.0	92	32.9	0	0	---	0.00	30.146 
04:55	35.0	35.0	35.0	92	32.9	0	0	---	0.00	30.148 
05:00	34.9	34.9	34.9	92	32.8	0	0	---	0.00	30.147 
05:05	34.7	34.7	34.7	92	32.6	0	0	---	0.00	30.147 
05:10	34.7	34.7	34.7	92	32.6	0	0	---	0.00	30.149 
05:15	34.6	34.6	34.6	92	32.5	0	0	---	0.00	30.152 
05:20	34.6	34.6	34.6	92	32.5	0	0	---	0.00	30.155 
05:25	34.4	34.4	34.4	92	32.3	0	0	---	0.00	30.159 
05:30	34.3	34.3	34.3	92	32.2	0	0	---	0.00	30.159 
05:35	34.1	34.1	34.1	92	32.0	0	0	---	0.00	30.160 
05:40	34.1	34.1	34.1	92	32.0	0	0	---	0.00	30.161 
05:45	34.0	34.0	34.0	93	32.2	0	0	---	0.00	30.161 
05:50	33.8	33.8	33.8	93	32.0	0	0	---	0.00	30.163 
05:55	33.8	33.8	33.8	93	32.0	0	0	---	0.00	30.165 
06:00	33.8	33.8	33.8	93	32.0	0	0	---	0.00	30.168 
06:05	33.8	33.8	33.8	93	32.0	0	0	---	0.00	30.169 
06:10	33.8	33.8	33.8	93	32.0	0	0	---	0.00	30.169 
06:15	33.8	33.8	33.8	93	32.0	0	0	---	0.00	30.172 
06:20	33.7	33.7	33.7	93	31.9	0	0	---	0.00	30.171 
06:25	33.5	33.5	33.5	93	31.7	0	0	---	0.00	30.173 
06:30	33.5	33.5	33.5	93	31.7	0	0	---	0.00	30.174 
06:35	33.5	33.5	33.5	93	31.7	0	0	---	0.00	30.175 
06:40	33.5	33.5	33.5	93	31.7	0	0	---	0.00	30.175 
06:45	33.4	33.4	33.4	94	31.9	0	0	---	0.00	30.178 
06:50	33.4	33.4	33.4	94	31.9	0	0	---	0.00	30.179 
06:55	33.4	33.4	33.4	94	31.9	0	0	---	0.00	30.180 
07:00	33.5	33.5	33.5	94	32.0	0	0	---	0.00	30.183 
07:05	33.5	33.5	33.5	94	32.0	0	0	---	0.00	30.185 
07:10	33.7	33.7	33.7	94	32.2	0	0	---	0.00	30.188 
07:15	34.0	34.0	34.0	94	32.5	0	0	---	0.00	30.191 
07:20	34.1	34.1	34.1	94	32.6	0	0	---	0.00	30.192 
07:25	34.4	34.4	34.4	94	32.9	0	0	---	0.00	30.192 
07:30	34.9	34.9	34.9	95	33.6	0	0	---	0.00	30.190 
07:35	35.2	35.2	35.2	95	33.9	0	0	---	0.00	30.191 
07:40	35.6	35.6	35.6	95	34.3	0	0	---	0.00	30.192 
07:45	36.2	36.2	36.2	95	34.9	0	0	---	0.00	30.193 
07:50	36.8	36.8	36.8	95	35.5	0	0	---	0.00	30.192 
07:55	37.3	37.3	37.3	96	36.3	0	0	---	0.00	30.193 
08:00	38.2	38.2	38.2	96	37.2	0	0	---	0.00	30.193 
08:05	38.8	38.8	38.8	96	37.8	0	0	---	0.00	30.195 
08:10	39.3	39.3	39.3	96	38.3	0	1	112	0.00	30.199 
08:15	39.9	39.9	39.9	95	38.6	0	1	112	0.00	30.202 
08:20	40.5	40.5	40.5	95	39.2	0	1	112	0.00	30.202 
08:25	41.2	41.2	41.2	93	39.3	0	2	112	0.00	30.202 
08:30	41.9	41.9	41.9	90	39.2	0	1	112	0.00	30.201 
08:35	42.6	42.6	42.6	88	39.3	0	2	112	0.00	30.201 
08:40	43.3	43.3	43.3	86	39.4	0	1	112	0.00	30.201 
08:45	43.9	43.9	43.9	79	37.8	1	5	112	0.00	30.201 
08:50	45.1	45.1	45.1	77	38.3	1	2	112	0.00	30.201 
08:55	46.1	46.1	46.1	73	37.9	1	5	112	0.00	30.200 
09:00	47.3	47.3	47.3	69	37.7	1	4	112	0.00	30.202 
09:05	48.3	48.3	48.3	69	38.6	1	4	90	0.00	30.204 
09:10	49.1	49.1	49.1	67	38.6	0	3	90	0.00	30.204 
09:15	49.8	49.8	49.8	65	38.5	1	3	68	0.00	30.205 
09:20	50.5	50.5	50.5	64	38.8	0	2	68	0.00	30.204 
09:25	51.1	51.1	51.1	63	38.9	1	3	68	0.00	30.204 
09:30	51.9	51.9	51.9	62	39.3	1	3	90	0.00	30.201 
09:35	52.3	52.3	52.3	59	38.4	1	3	90	0.00	30.201 
09:40	52.8	52.8	52.8	58	38.4	1	5	90	0.00	30.199 
09:45	53.1	53.1	53.1	55	37.4	3	6	90	0.00	30.200 
09:50	53.2	53.2	53.2	55	37.5	2	5	90	0.00	30.201 
09:55	53.6	53.6	53.6	58	39.2	1	4	90	0.00	30.200 
10:00	54.1	54.1	54.1	56	38.8	1	4	135	0.00	30.200 
10:05	54.7	54.7	54.7	55	38.9	1	3	90	0.00	30.200 
10:10	55.1	55.1	55.1	56	39.7	1	3	90	0.00	30.200 
10:15	55.0	55.0	55.0	54	38.7	2	4	90	0.00	30.199 
10:20	55.3	55.3	55.3	54	38.9	1	4	112	0.00	30.199 
10:25	55.7	55.7	55.7	54	39.3	1	3	112	0.00	30.197 
10:30	55.9	55.9	55.9	53	39.0	2	5	112	0.00	30.197 
10:35	56.0	56.0	56.0	51	38.1	2	5	135	0.00	30.196 
10:40	56.2	56.2	56.2	50	37.8	1	3	112	0.00	30.197 
10:45	56.5	56.5	56.5	55	40.5	0	3	112	0.00	30.197 
10:50	56.7	56.7	56.7	52	39.3	1	5	112	0.00	30.197 
10:55	57.3	57.3	57.3	54	40.8	0	1	90	0.00	30.197 
11:00	57.6	57.6	57.6	46	37.0	1	3	90	0.00	30.195 
11:05	57.8	57.8	57.8	48	38.2	2	5	112	0.00	30.197 
11:10	57.5	57.5	57.5	49	38.5	1	3	112	0.00	30.198 
11:15	57.8	57.8	57.8	49	38.8	0	1	158	0.00	30.197 
11:20	58.1	58.1	58.1	47	38.0	0	1	158	0.00	30.197 
11:25	58.6	58.6	58.6	48	39.0	0	3	158	0.00	30.196 
11:30	58.7	58.7	58.7	49	39.6	1	2	112	0.00	30.197 
11:35	58.6	58.6	58.6	46	37.9	1	4	112	0.00	30.197 
11:40	58.6	58.6	58.6	47	38.4	1	4	112	0.00	30.197 
11:45	58.6	58.6	58.6	45	37.3	0	2	135	0.00	30.197 
11:50	58.9	58.9	58.9	43	36.4	1	4	112	0.00	30.197 
11:55	58.6	58.6	58.6	46	37.9	1	4	90	0.00	30.196 
12:00	58.4	58.4	58.4	44	36.6	1	2	180	0.00	30.197 
12:05	58.9	58.9	58.9	46	38.2	1	2	112	0.00	30.197 
12:10	58.9	58.9	58.9	46	38.2	1	2	112	0.00	30.197 
12:15	59.2	59.2	59.2	49	40.0	0	2	112	0.00	30.195 
12:20	58.9	58.9	58.9	44	37.0	1	3	112	0.00	30.195 
12:25	58.4	58.4	58.4	47	38.2	1	3	248	0.00	30.194 
12:30	58.7	58.7	58.7	48	39.1	1	4	90	0.00	30.195 
12:35	58.9	58.9	58.9	47	38.7	1	3	90	0.00	30.195 
12:40	58.7	58.7	58.7	46	38.0	1	3	90	0.00	30.194 
12:45	58.9	58.9	58.9	47	38.7	0	2	90	0.00	30.192 
12:50	58.7	58.7	58.7	42	35.7	0	2	90	0.00	30.193 
12:55	58.7	58.7	58.7	45	37.4	1	3	90	0.00	30.193 
13:00	59.0	59.0	59.0	44	37.1	0	2	90	0.00	30.191 
13:05	59.3	59.3	59.3	44	37.4	0	2	90	0.00	30.190 
13:10	59.6	59.6	59.6	43	37.1	0	2	90	0.00	30.190 
13:15	59.8	59.8	59.8	42	36.7	0	2	90	0.00	30.186 
13:20	59.9	59.9	59.9	43	37.3	0	2	90	0.00	30.183 
13:25	60.2	60.2	60.2	44	38.2	0	1	90	0.00	30.181 
13:30	60.2	60.2	60.2	40	35.8	0	3	90	0.00	30.181 
13:35	59.9	59.9	59.9	45	38.5	1	5	90	0.00	30.180 
13:40	59.9	59.9	59.9	41	36.1	0	2	90	0.00	30.180 
13:45	59.3	59.3	59.3	41	35.6	2	5	90	0.00	30.179 
13:50	58.7	58.7	58.7	39	33.8	1	3	90	0.00	30.179 
13:55	58.4	58.4	58.4	40	34.2	1	3	90	0.00	30.180 
14:00	58.6	58.6	58.6	43	36.2	0	2	90	0.00	30.178 
14:05	58.9	58.9	58.9	43	36.4	1	4	90	0.00	30.178 
14:10	58.9	58.9	58.9	46	38.2	2	4	112	0.00	30.176 
14:15	59.0	59.0	59.0	42	35.9	0	2	112	0.00	30.176 
14:20	59.2	59.2	59.2	40	34.9	0	2	90	0.00	30.174 
14:25	58.9	58.9	58.9	43	36.4	1	4	90	0.00	30.169 
14:30	59.0	59.0	59.0	41	35.3	1	4	112	0.00	30.168 
14:35	59.2	59.2	59.2	40	34.9	1	4	112	0.00	30.169 
14:40	59.3	59.3	59.3	45	38.0	1	2	112	0.00	30.168 
14:45	59.3	59.3	59.3	41	35.6	2	5	112	0.00	30.171 
14:50	59.3	59.3	59.3	42	36.2	1	4	112	0.00	30.170 
14:55	59.5	59.5	59.5	43	37.0	1	4	112	0.00	30.168 
15:00	59.8	59.8	59.8	43	37.3	0	2	112	0.00	30.166 
15:05	60.2	60.2	60.2	40	35.8	0	2	68	0.00	30.170 
15:10	60.2	60.2	60.2	38	34.5	0	1	68	0.00	30.170 
15:15	60.1	60.1	60.1	38	34.4	0	2	68	0.00	30.168 
15:20	60.2	60.2	60.2	39	35.2	0	2	68	0.00	30.168 
15:25	60.4	60.4	60.4	40	36.0	0	1	68	0.00	30.167 
15:30	60.5	60.5	60.5	38	34.8	0	2	68	0.00	30.166 
15:35	60.4	60.4	60.4	39	35.3	0	1	68	0.00	30.168 
15:40	60.2	60.2	60.2	40	35.8	0	2	292	0.00	30.169 
15:45	59.9	59.9	59.9	43	37.3	0	1	292	0.00	30.169 
15:50	59.8	59.8	59.8	41	36.1	0	1	292	0.00	30.169 
15:55	59.5	59.5	59.5	41	35.8	0	1	292	0.00	30.169 
16:00	59.3	59.3	59.3	39	34.3	0	1	292	0.00	30.170 
16:05	59.3	59.3	59.3	38	33.7	0	1	292	0.00	30.174 
16:10	59.2	59.2	59.2	37	32.9	0	1	292	0.00	30.174 
16:15	59.2	59.2	59.2	40	34.9	0	1	292	0.00	30.173 
16:20	59.0	59.0	59.0	41	35.3	0	1	292	0.00	30.174 
16:25	59.0	59.0	59.0	39	34.1	0	0	---	0.00	30.175 
16:30	59.0	59.0	59.0	41	35.3	0	0	---	0.00	30.175 
16:35	59.0	59.0	59.0	42	35.9	0	1	292	0.00	30.172 
16:40	58.9	58.9	58.9	40	34.6	0	1	292	0.00	30.170 
16:45	58.9	58.9	58.9	39	34.0	0	1	292	0.00	30.170 
16:50	58.9	58.9	58.9	41	35.2	0	0	---	0.00	30.169 
16:55	58.7	58.7	58.7	41	35.1	0	2	292	0.00	30.169 
17:00	58.6	58.6	58.6	42	35.6	0	2	292	0.00	30.170 
17:05	58.6	58.6	58.6	43	36.2	0	1	292	0.00	30.172 
17:10	58.4	58.4	58.4	45	37.1	0	0	---	0.00	30.174 
17:15	58.3	58.3	58.3	42	35.3	0	1	292	0.00	30.178 
17:20	58.0	58.0	58.0	42	35.0	0	0	---	0.00	30.181 
17:25	57.8	57.8	57.8	41	34.3	0	0	---	0.00	30.184 
17:30	57.6	57.6	57.6	45	36.4	0	0	---	0.00	30.185 
17:35	57.5	57.5	57.5	44	35.8	0	1	292	0.00	30.185 
17:40	57.3	57.3	57.3	43	35.0	0	1	292	0.00	30.187 
17:45	57.2	57.2	57.2	45	36.1	0	0	---	0.00	30.187 
17:50	56.9	56.9	56.9	47	36.9	0	0	---	0.00	30.188 
17:55	56.6	56.6	56.6	47	36.6	0	0	---	0.00	30.188 
18:00	56.2	56.2	56.2	49	37.3	0	0	---	0.00	30.188 
18:05	55.7	55.7	55.7	52	38.3	0	0	---	0.00	30.188 
18:10	55.1	55.1	55.1	54	38.8	0	0	---	0.00	30.189 
18:15	54.4	54.4	54.4	54	38.1	0	0	---	0.00	30.191 
18:20	53.8	53.8	53.8	56	38.5	0	0	---	0.00	30.193 
18:25	53.2	53.2	53.2	56	37.9	0	0	---	0.00	30.195 
18:30	52.6	52.6	52.6	58	38.2	0	0	---	0.00	30.198 
18:35	52.0	52.0	52.0	59	38.1	0	0	---	0.00	30.197 
18:40	51.6	51.6	51.6	59	37.7	0	0	---	0.00	30.199 
18:45	51.0	51.0	51.0	62	38.4	0	0	---	0.00	30.202 
18:50	50.5	50.5	50.5	63	38.4	0	0	---	0.00	30.202 
18:55	50.1	50.1	50.1	65	38.8	0	0	---	0.00	30.202 
19:00	49.5	49.5	49.5	66	38.6	0	0	---	0.00	30.202 
19:05	49.1	49.1	49.1	67	38.6	0	0	---	0.00	30.198 
19:10	48.6	48.6	48.6	69	38.9	0	0	---	0.00	30.201 
19:15	48.3	48.3	48.3	71	39.3	0	0	---	0.00	30.202 
19:20	47.9	47.9	47.9	72	39.3	0	0	---	0.00	30.202 
19:25	47.6	47.6	47.6	73	39.4	0	0	---	0.00	30.205 
19:30	47.3	47.3	47.3	74	39.4	0	0	---	0.00	30.208 
19:35	47.0	47.0	47.0	75	39.5	0	0	---	0.00	30.209 
19:40	46.7	46.7	46.7	76	39.5	0	0	---	0.00	30.209 
19:45	46.4	46.4	46.4	77	39.6	0	0	---	0.00	30.209 
19:50	46.2	46.2	46.2	77	39.4	0	1	292	0.00	30.210 
19:55	46.0	46.0	46.0	78	39.5	0	0	---	0.00	30.210 
20:00	45.7	45.7	45.7	78	39.2	0	0	---	0.00	30.210 
20:05	45.4	45.4	45.4	78	38.9	0	0	---	0.00	30.202 
20:10	45.2	45.2	45.2	79	39.1	0	0	---	0.00	30.202 
20:15	45.2	45.2	45.2	79	39.1	0	0	---	0.00	30.204 
20:20	45.1	45.1	45.1	79	39.0	0	0	---	0.00	30.204 
20:25	44.9	44.9	44.9	79	38.8	0	0	---	0.00	30.206 
20:30	44.8	44.8	44.8	79	38.7	0	0	---	0.00	30.209 
20:35	44.8	44.8	44.8	79	38.7	0	0	---	0.00	30.208 
20:40	44.6	44.6	44.6	80	38.8	0	0	---	0.00	30.209 
20:45	44.5	44.5	44.5	80	38.7	0	0	---	0.00	30.209 
20:50	44.2	44.2	44.2	79	38.1	0	0	---	0.00	30.213 
20:55	44.1	44.1	44.1	80	38.3	0	0	---	0.00	30.214 
21:00	43.9	43.9	43.9	80	38.1	0	0	---	0.00	30.213 
21:05	43.8	43.8	43.8	81	38.4	0	0	---	0.00	30.204 
21:10	43.6	43.6	43.6	81	38.2	0	0	---	0.00	30.203 
21:15	43.3	43.3	43.3	81	37.9	0	0	---	0.00	30.206 
21:20	43.2	43.2	43.2	81	37.8	0	0	---	0.00	30.206 
21:25	43.1	43.1	43.1	81	37.7	0	0	---	0.00	30.205 
21:30	42.9	42.9	42.9	81	37.5	0	0	---	0.00	30.207 
21:35	42.8	42.8	42.8	82	37.7	0	0	---	0.00	30.208 
21:40	42.6	42.6	42.6	82	37.5	0	0	---	0.00	30.210 
21:45	42.5	42.5	42.5	83	37.7	0	0	---	0.00	30.210 
21:50	42.5	42.5	42.5	83	37.7	0	0	---	0.00	30.211 
21:55	42.5	42.5	42.5	83	37.7	0	0	---	0.00	30.210 
22:00	42.3	42.3	42.3	83	37.5	0	0	---	0.00	30.209 
22:05	42.3	42.3	42.3	84	37.8	0	0	---	0.00	30.204 
22:10	42.2	42.2	42.2	84	37.7	0	0	---	0.00	30.207 
22:15	42.1	42.1	42.1	84	37.6	0	0	---	0.00	30.208 
22:20	41.9	41.9	41.9	84	37.4	0	0	---	0.00	30.209 
22:25	41.8	41.8	41.8	84	37.3	0	0	---	0.00	30.209 
22:30	41.6	41.6	41.6	84	37.1	0	0	---	0.00	30.209 
22:35	41.5	41.5	41.5	84	37.0	0	0	---	0.00	30.210 
22:40	41.5	41.5	41.5	84	37.0	0	0	---	0.00	30.210 
22:45	41.3	41.3	41.3	85	37.1	0	0	---	0.00	30.212 
22:50	41.3	41.3	41.3	85	37.1	0	0	---	0.00	30.212 
22:55	41.2	41.2	41.2	85	37.0	0	0	---	0.00	30.212 
23:00	41.2	41.2	41.2	85	37.0	0	0	---	0.00	30.212 
23:05	41.1	41.1	41.1	85	36.9	0	0	---	0.00	30.213 
23:10	40.9	40.9	40.9	85	36.7	0	0	---	0.00	30.213 
23:15	40.9	40.9	40.9	85	36.7	0	0	---	0.00	30.213 
23:20	40.8	40.8	40.8	85	36.6	0	0	---	0.00	30.213 
23:25	40.8	40.8	40.8	85	36.6	0	0	---	0.00	30.213 
23:30	40.6	40.6	40.6	85	36.4	0	0	---	0.00	30.213 
23:35	40.6	40.6	40.6	86	36.7	0	0	---	0.00	30.213 
23:40	40.5	40.5	40.5	86	36.6	0	0	---	0.00	30.213 
23:45	40.3	40.3	40.3	86	36.5	0	0	---	0.00	30.212 
23:50	40.2	40.2	40.2	86	36.4	0	0	---	0.00	30.214 
23:55	40.1	40.1	40.1	86	36.3	0	0	---	0.00	30.216 

CoCoRaHS
IN-AL-39
A2 Web Hosting
Creative Commons License
GoDaddy
Look for:

loaded 2017-10-17 09:21:57 • last modified 2010-11-18 10:43:29
Privacy PolicyDisclaimer
• wx.awcolley.com is powered by PmWiki v.2002016 •
• all content (unless otherwise noted) © 2017 A W Colley